Time;durP1;ratioP1;P1;durP2;ratioP2;P2;SDS_P1;SDS_P2;PMS_P1;PMS_P2;Temp;Humidity;BMP_temperature;BMP_pressure;BME280_temperature;BME280_humidity;BME280_pressure;Samples;Min_cycle;Max_cycle;Signal;HPM_P1;HPM_P2
2023/07/22 00:01:04;;;;;;;0.65;0.50;;;;;;;21.00;67.16;99451.56;4469109;31;33403;-88
2023/07/22 00:03:33;;;;;;;0.57;0.57;;;;;;;21.02;67.22;99446.91;4487656;31;33327;-87
2023/07/22 00:06:08;;;;;;;0.30;0.30;;;;;;;20.84;67.90;99459.31;4478824;31;33114;-86
2023/07/22 00:08:38;;;;;;;0.20;0.20;;;;;;;20.79;68.16;99450.84;4467879;31;33714;-88
2023/07/22 00:11:05;;;;;;;0.73;0.45;;;;;;;20.90;67.83;99448.06;4479969;31;33246;-89
2023/07/22 00:13:33;;;;;;;0.95;0.45;;;;;;;20.92;67.67;99456.78;4481540;32;33062;-88
2023/07/22 00:16:04;;;;;;;0.57;0.57;;;;;;;21.01;67.19;99464.00;4471993;32;34212;-89
2023/07/22 00:18:32;;;;;;;0.75;0.75;;;;;;;21.00;67.09;99472.22;4480783;31;33415;-88
2023/07/22 00:20:59;;;;;;;0.77;0.60;;;;;;;21.01;67.13;99469.38;4478855;31;32590;-88
2023/07/22 00:23:27;;;;;;;0.75;0.75;;;;;;;20.88;67.43;99482.22;4492337;31;33868;-88
2023/07/22 00:25:55;;;;;;;0.30;0.30;;;;;;;20.91;67.42;99471.22;4476396;32;32104;-88
2023/07/22 00:28:23;;;;;;;0.32;0.30;;;;;;;20.88;67.55;99460.75;4461442;31;32388;-88
2023/07/22 00:30:53;;;;;;;2.17;0.93;;;;;;;20.84;67.87;99460.22;4475130;31;32636;-86
2023/07/22 00:33:21;;;;;;;1.55;0.88;;;;;;;20.68;68.36;99459.87;4476565;31;33751;-87
2023/07/22 00:35:53;;;;;;;1.20;1.10;;;;;;;20.76;67.85;99448.47;4474945;31;33116;-86
2023/07/22 00:38:21;;;;;;;0.40;0.40;;;;;;;20.62;68.49;99452.41;4480428;31;35279;-87
2023/07/22 00:40:49;;;;;;;5.62;1.20;;;;;;;20.74;67.95;99451.28;4475670;31;32632;-87
2023/07/22 00:43:16;;;;;;;0.57;0.43;;;;;;;20.78;67.53;99449.16;4462892;31;35102;-87
2023/07/22 00:45:44;;;;;;;1.37;0.60;;;;;;;20.76;67.54;99443.09;4466383;31;32395;-87
2023/07/22 00:48:13;;;;;;;0.80;0.45;;;;;;;20.70;68.15;99453.41;4470211;31;33216;-87
2023/07/22 00:50:41;;;;;;;0.52;0.40;;;;;;;20.84;67.68;99454.84;4475787;31;34062;-89
2023/07/22 00:53:08;;;;;;;0.00;0.00;;;;;;;20.88;67.38;99476.84;4479894;31;31716;-88
2023/07/22 00:55:38;;;;;;;1.65;1.33;;;;;;;20.91;67.46;99471.22;4481440;31;33898;-90
2023/07/22 00:58:05;;;;;;;1.10;1.10;;;;;;;21.00;67.16;99477.56;4470414;31;32455;-89
2023/07/22 01:00:33;;;;;;;0.30;0.30;;;;;;;20.71;67.77;99494.50;4475345;31;34378;-89
2023/07/22 01:03:01;;;;;;;0.40;0.40;;;;;;;20.87;67.27;99500.16;4464770;31;31994;-89
2023/07/22 01:05:30;;;;;;;0.47;0.47;;;;;;;20.79;67.49;99496.47;4475862;31;33099;-90
2023/07/22 01:07:58;;;;;;;0.30;0.30;;;;;;;20.94;67.07;99506.69;4480884;31;32233;-89
2023/07/22 01:10:26;;;;;;;0.73;0.73;;;;;;;20.75;67.69;99498.59;4465250;31;32406;-89
2023/07/22 01:12:53;;;;;;;0.20;0.20;;;;;;;20.64;68.13;99502.25;4481726;31;32800;-89
2023/07/22 01:15:22;;;;;;;0.15;0.15;;;;;;;20.59;68.65;99498.28;4465929;31;33800;-89
2023/07/22 01:17:51;;;;;;;0.30;0.30;;;;;;;20.62;68.79;99498.84;4477179;31;32364;-89
2023/07/22 01:20:20;;;;;;;0.35;0.35;;;;;;;20.57;68.78;99501.09;4478119;31;33753;-89
2023/07/22 01:22:52;;;;;;;0.45;0.45;;;;;;;20.57;68.54;99508.31;4478374;31;32695;-89
2023/07/22 01:25:23;;;;;;;0.75;0.75;;;;;;;20.45;69.03;99512.87;4465509;31;32888;-89
2023/07/22 01:27:52;;;;;;;0.30;0.30;;;;;;;20.90;67.10;99518.69;4487304;31;34654;-90
2023/07/22 01:30:19;;;;;;;0.95;0.60;;;;;;;20.97;66.58;99517.09;4476918;31;32853;-86
2023/07/22 01:32:47;;;;;;;0.15;0.15;;;;;;;20.72;67.57;99504.25;4491830;31;33324;-86
2023/07/22 01:35:15;;;;;;;0.20;0.20;;;;;;;20.57;68.51;99509.16;4490259;31;34336;-87
2023/07/22 01:37:42;;;;;;;0.30;0.30;;;;;;;20.63;68.25;99511.28;4493584;31;34074;-87
2023/07/22 01:40:14;;;;;;;0.52;0.52;;;;;;;20.74;68.14;99523.72;4490313;31;34143;-87
2023/07/22 01:42:42;;;;;;;0.50;0.50;;;;;;;20.67;68.25;99530.63;4485635;31;33532;-86
2023/07/22 01:45:10;;;;;;;0.47;0.45;;;;;;;20.65;68.22;99535.28;4460155;32;32381;-86
2023/07/22 01:47:39;;;;;;;2.90;0.43;;;;;;;20.69;68.05;99532.19;4482254;31;33465;-87
2023/07/22 01:50:08;;;;;;;0.17;0.17;;;;;;;20.62;68.29;99528.37;4476374;31;32080;-86
2023/07/22 01:52:35;;;;;;;0.30;0.30;;;;;;;20.69;67.94;99542.06;4460565;31;32605;-86
2023/07/22 01:55:05;;;;;;;0.15;0.15;;;;;;;20.66;68.07;99545.88;4469130;31;32668;-86
2023/07/22 01:57:34;;;;;;;0.30;0.30;;;;;;;20.77;67.58;99544.91;4478145;31;33190;-86
2023/07/22 02:00:05;;;;;;;1.58;1.08;;;;;;;20.69;67.80;99542.91;4487258;31;33816;-86
2023/07/22 02:02:39;;;;;;;0.25;0.25;;;;;;;20.68;67.72;99554.62;4472702;32;32084;-86
2023/07/22 02:05:11;;;;;;;2.03;0.65;;;;;;;20.69;67.65;99553.63;4471020;32;32374;-86
2023/07/22 02:07:39;;;;;;;0.70;0.70;;;;;;;20.58;67.64;99548.41;4476606;31;33991;-86
2023/07/22 02:10:08;;;;;;;0.35;0.32;;;;;;;20.51;67.98;99558.00;4482001;31;33532;-86
2023/07/22 02:12:36;;;;;;;0.40;0.40;;;;;;;20.67;67.45;99561.00;4465454;31;31623;-86
2023/07/22 02:15:04;;;;;;;0.40;0.40;;;;;;;20.64;67.60;99555.03;4492083;31;34658;-86
2023/07/22 02:17:32;;;;;;;0.50;0.50;;;;;;;20.51;67.88;99568.72;4477718;31;34095;-86
2023/07/22 02:20:00;;;;;;;0.77;0.55;;;;;;;20.57;67.61;99561.97;4483435;31;33472;-87
2023/07/22 02:22:28;;;;;;;0.30;0.30;;;;;;;20.55;67.65;99572.81;4470677;32;33200;-87
2023/07/22 02:24:55;;;;;;;1.02;0.37;;;;;;;20.61;67.36;99574.97;4479906;31;32778;-87
2023/07/22 02:27:24;;;;;;;0.55;0.50;;;;;;;20.54;68.00;99578.31;4473404;31;33483;-87
2023/07/22 02:29:52;;;;;;;8.27;0.65;;;;;;;20.54;67.68;99570.25;4498953;31;36084;-87
2023/07/22 02:32:19;;;;;;;0.57;0.50;;;;;;;20.44;68.23;99579.09;4485173;31;33156;-87
2023/07/22 02:34:47;;;;;;;1.90;1.15;;;;;;;20.46;68.15;99569.09;4467531;31;32409;-88
2023/07/22 02:37:15;;;;;;;1.55;1.23;;;;;;;20.63;67.64;99569.44;4480161;31;32131;-88
2023/07/22 02:39:42;;;;;;;0.30;0.30;;;;;;;20.57;67.62;99565.47;4461009;32;33076;-88
2023/07/22 02:42:10;;;;;;;1.35;0.40;;;;;;;20.45;68.03;99572.75;4459281;31;32882;-87
2023/07/22 02:44:38;;;;;;;0.28;0.28;;;;;;;20.55;67.64;99580.00;4485154;31;34707;-87
2023/07/22 02:47:05;;;;;;;0.90;0.90;;;;;;;20.57;67.56;99581.59;4480964;31;33876;-87
2023/07/22 02:49:33;;;;;;;6.70;1.48;;;;;;;20.49;67.51;99588.59;4467580;31;32945;-87
2023/07/22 02:52:01;;;;;;;0.17;0.17;;;;;;;20.37;68.21;99593.19;4483500;31;32281;-87
2023/07/22 02:54:29;;;;;;;0.65;0.65;;;;;;;20.41;68.11;99591.91;4469340;31;34335;-87
2023/07/22 02:56:56;;;;;;;0.30;0.30;;;;;;;20.56;67.71;99582.56;4470536;31;33194;-87
2023/07/22 02:59:24;;;;;;;0.88;0.52;;;;;;;20.41;68.25;99586.56;4474507;31;33905;-87
2023/07/22 03:01:52;;;;;;;0.57;0.47;;;;;;;20.42;68.25;99590.97;4476698;31;32935;-87
2023/07/22 03:04:20;;;;;;;0.30;0.30;;;;;;;20.42;68.00;99604.37;4493258;31;33566;-87
2023/07/22 03:06:47;;;;;;;1.90;1.65;;;;;;;20.40;68.14;99606.31;4477823;31;34224;-87
2023/07/22 03:09:15;;;;;;;0.50;0.20;;;;;;;20.37;68.46;99603.91;4477780;31;33705;-86
2023/07/22 03:11:43;;;;;;;0.32;0.32;;;;;;;20.41;68.29;99602.63;4491292;31;32268;-87
2023/07/22 03:14:10;;;;;;;0.17;0.17;;;;;;;20.39;68.46;99600.09;4492818;31;34403;-87
2023/07/22 03:16:38;;;;;;;0.37;0.28;;;;;;;20.46;68.25;99600.41;4466602;31;33428;-87
2023/07/22 03:19:06;;;;;;;1.05;0.85;;;;;;;20.38;68.49;99595.72;4465731;31;32546;-87
2023/07/22 03:21:34;;;;;;;0.80;0.77;;;;;;;20.31;68.55;99596.37;4489552;31;33587;-87
2023/07/22 03:24:02;;;;;;;0.80;0.75;;;;;;;20.31;68.71;99594.56;4465429;31;34394;-87
2023/07/22 03:26:29;;;;;;;1.17;1.10;;;;;;;20.48;68.27;99601.16;4487594;31;34440;-88
2023/07/22 03:28:57;;;;;;;1.08;1.08;;;;;;;20.46;68.20;99601.28;4489576;31;34590;-88
2023/07/22 03:31:25;;;;;;;0.15;0.15;;;;;;;20.50;67.90;99601.88;4477147;31;33261;-87
2023/07/22 03:33:52;;;;;;;0.52;0.52;;;;;;;20.43;68.21;99604.22;4491517;31;34615;-87
2023/07/22 03:36:20;;;;;;;0.28;0.28;;;;;;;20.48;68.05;99597.63;4464563;31;33870;-86
2023/07/22 03:38:48;;;;;;;1.50;1.40;;;;;;;20.49;68.11;99608.22;4476975;31;33756;-86
2023/07/22 03:41:15;;;;;;;0.98;0.98;;;;;;;20.35;68.46;99605.88;4478124;31;32135;-87
2023/07/22 03:43:43;;;;;;;1.00;1.00;;;;;;;20.51;67.86;99606.28;4493876;31;34331;-87
2023/07/22 03:46:11;;;;;;;1.10;1.00;;;;;;;20.52;68.18;99610.66;4481643;31;32489;-88
2023/07/22 03:48:38;;;;;;;0.68;0.62;;;;;;;20.60;68.35;99618.84;4479346;31;33844;-87
2023/07/22 03:51:06;;;;;;;1.92;1.02;;;;;;;20.61;68.68;99617.88;4479028;31;33376;-87
2023/07/22 03:53:47;;;;;;;0.70;0.70;;;;;;;20.77;68.25;99613.84;4481447;31;33192;-86
2023/07/22 03:56:15;;;;;;;0.73;0.73;;;;;;;20.95;67.73;99620.25;4488140;31;34046;-86
2023/07/22 03:58:42;;;;;;;0.73;0.73;;;;;;;20.90;67.83;99620.66;4477381;31;32417;-86
2023/07/22 04:01:11;;;;;;;0.82;0.77;;;;;;;20.94;67.88;99632.81;4481440;31;32783;-86
2023/07/22 04:03:39;;;;;;;0.65;0.65;;;;;;;21.09;67.42;99625.22;4489791;31;33888;-86
2023/07/22 04:06:06;;;;;;;0.70;0.57;;;;;;;21.26;66.31;99625.53;4477318;31;33594;-86
2023/07/22 04:08:34;;;;;;;1.37;0.77;;;;;;;21.23;66.33;99626.66;4490610;31;32936;-87
2023/07/22 04:11:02;;;;;;;1.65;0.90;;;;;;;21.11;67.23;99617.88;4491183;31;33202;-86
2023/07/22 04:13:30;;;;;;;0.52;0.47;;;;;;;21.15;67.71;99618.44;4490785;31;35076;-87
2023/07/22 04:15:57;;;;;;;0.73;0.73;;;;;;;21.16;67.64;99618.28;4489804;31;33360;-87
2023/07/22 04:18:25;;;;;;;0.13;0.13;;;;;;;21.27;67.90;99611.97;4476466;31;34531;-86
2023/07/22 04:20:57;;;;;;;0.65;0.65;;;;;;;21.27;67.98;99621.84;4477415;31;32851;-87
2023/07/22 04:23:25;;;;;;;0.98;0.45;;;;;;;21.38;68.32;99611.84;4488851;31;33644;-87
2023/07/22 04:25:53;;;;;;;0.43;0.43;;;;;;;21.43;68.11;99609.59;4476297;31;33217;-87
2023/07/22 04:28:21;;;;;;;2.55;1.48;;;;;;;21.55;67.65;99607.59;4480188;31;33165;-87
2023/07/22 04:30:59;;;;;;;0.50;0.50;;;;;;;21.59;67.58;99606.34;4461140;32;33167;-87
2023/07/22 04:33:27;;;;;;;1.65;1.02;;;;;;;21.77;67.06;99613.69;4476167;32;33385;-87
2023/07/22 04:35:58;;;;;;;1.23;1.08;;;;;;;21.60;67.38;99615.25;4461246;32;32749;-87
2023/07/22 04:38:25;;;;;;;1.45;0.95;;;;;;;21.79;66.79;99609.88;4477185;31;33902;-87
2023/07/22 04:40:53;;;;;;;3.72;1.27;;;;;;;22.24;64.94;99615.47;4458966;32;33600;-86
2023/07/22 04:43:21;;;;;;;2.58;1.45;;;;;;;22.35;64.51;99618.97;4461709;32;33857;-87
2023/07/22 04:45:49;;;;;;;0.82;0.15;;;;;;;21.92;66.43;99623.00;4461264;32;33504;-86
2023/07/22 04:48:22;;;;;;;0.40;0.40;;;;;;;21.88;66.97;99621.59;4462569;32;34067;-87
2023/07/22 04:50:51;;;;;;;0.62;0.62;;;;;;;21.92;67.23;99623.00;4462527;32;33097;-87
2023/07/22 04:53:18;;;;;;;0.35;0.35;;;;;;;22.18;66.39;99624.12;4479786;32;33894;-87
2023/07/22 04:55:46;;;;;;;1.55;0.98;;;;;;;22.16;66.59;99628.78;4475412;32;33981;-87
2023/07/22 04:58:13;;;;;;;0.82;0.75;;;;;;;22.15;66.55;99640.53;4460775;32;33848;-87
2023/07/22 05:00:42;;;;;;;0.30;0.30;;;;;;;22.24;66.03;99642.34;4472385;32;33875;-87
2023/07/22 05:03:10;;;;;;;0.68;0.68;;;;;;;22.25;66.19;99637.81;4469157;32;33553;-86
2023/07/22 05:05:38;;;;;;;1.02;0.93;;;;;;;22.33;65.76;99634.41;4476165;32;34116;-86
2023/07/22 05:08:07;;;;;;;0.82;0.82;;;;;;;22.65;64.92;99637.56;4474874;32;34446;-88
2023/07/22 05:10:35;;;;;;;0.82;0.82;;;;;;;22.52;65.61;99637.03;4463090;32;33726;-87
2023/07/22 05:13:03;;;;;;;1.90;1.08;;;;;;;22.34;65.91;99639.66;4467828;32;34261;-87
2023/07/22 05:15:30;;;;;;;3.08;1.60;;;;;;;22.32;66.31;99636.25;4461309;32;33092;-87
2023/07/22 05:17:58;;;;;;;0.80;0.80;;;;;;;22.30;66.42;99643.63;4476493;32;33720;-87
2023/07/22 05:20:26;;;;;;;1.45;1.23;;;;;;;22.21;66.80;99639.94;4444300;32;31668;-87
2023/07/22 05:22:53;;;;;;;0.55;0.55;;;;;;;22.38;65.76;99646.44;4463647;32;33725;-87
2023/07/22 05:25:21;;;;;;;1.50;1.40;;;;;;;22.68;64.86;99645.31;4453019;32;32595;-87
2023/07/22 05:27:49;;;;;;;1.20;0.75;;;;;;;22.70;64.33;99640.66;4448832;31;95430;-87
2023/07/22 05:30:16;;;;;;;1.45;1.35;;;;;;;22.62;64.49;99659.38;4462191;32;32643;-86
2023/07/22 05:33:02;;;;;;;4.35;0.70;;;;;;;22.68;64.59;99663.31;4477358;32;32266;-87
2023/07/22 05:35:30;;;;;;;2.60;0.90;;;;;;;22.74;64.41;99651.94;4471601;32;33191;-87
2023/07/22 05:37:57;;;;;;;4.57;1.08;;;;;;;22.94;64.16;99655.44;4477818;32;33819;-87
2023/07/22 05:40:25;;;;;;;1.25;1.15;;;;;;;23.00;63.91;99655.69;4474334;31;31582;-87
2023/07/22 05:42:53;;;;;;;1.40;1.10;;;;;;;23.31;62.82;99649.13;4485920;31;34413;-87
2023/07/22 05:45:20;;;;;;;5.55;0.55;;;;;;;22.76;63.77;99660.75;4466694;31;33136;-86
2023/07/22 05:47:48;;;;;;;1.30;1.20;;;;;;;22.74;63.86;99652.81;4487980;31;32956;-86
2023/07/22 05:50:16;;;;;;;0.52;0.50;;;;;;;22.84;63.64;99663.53;4491690;31;33576;-86
2023/07/22 05:52:43;;;;;;;1.17;1.08;;;;;;;22.98;62.62;99664.94;4491174;31;34715;-86
2023/07/22 05:55:11;;;;;;;0.62;0.62;;;;;;;23.35;62.92;99666.69;4477524;31;32632;-87
2023/07/22 05:57:39;;;;;;;1.42;0.62;;;;;;;22.86;63.00;99682.22;4477139;31;32803;-86
2023/07/22 06:00:08;;;;;;;1.12;0.90;;;;;;;23.01;61.86;99686.16;4465535;31;33412;-86
2023/07/22 06:02:38;;;;;;;4.05;1.15;;;;;;;23.06;62.61;99681.16;4474298;31;32429;-86
2023/07/22 06:05:06;;;;;;;1.20;1.12;;;;;;;23.28;62.10;99681.78;4474728;31;32606;-85
2023/07/22 06:07:34;;;;;;;0.73;0.70;;;;;;;23.29;62.27;99669.97;4473793;31;32143;-86
2023/07/22 06:10:02;;;;;;;0.20;0.20;;;;;;;23.46;61.58;99683.50;4463606;31;31941;-86
2023/07/22 06:12:30;;;;;;;2.92;1.60;;;;;;;23.75;59.92;99672.50;4465842;31;32530;-85
2023/07/22 06:14:58;;;;;;;0.43;0.43;;;;;;;23.73;60.39;99679.91;4487261;31;34009;-85
2023/07/22 06:17:28;;;;;;;1.55;0.80;;;;;;;23.87;59.21;99672.25;4487349;31;34484;-85
2023/07/22 06:19:56;;;;;;;1.42;0.77;;;;;;;23.27;60.05;99663.91;4476274;31;32655;-85
2023/07/22 06:22:23;;;;;;;0.45;0.45;;;;;;;23.37;60.86;99662.00;4478899;31;33327;-85
2023/07/22 06:24:54;;;;;;;0.68;0.68;;;;;;;23.34;61.15;99660.44;4477008;31;34894;-85
2023/07/22 06:27:25;;;;;;;1.27;0.65;;;;;;;23.55;60.49;99662.88;4463420;31;32266;-85
2023/07/22 06:29:52;;;;;;;0.10;0.10;;;;;;;23.73;58.54;99665.56;4479808;31;32636;-86
2023/07/22 06:32:20;;;;;;;0.40;0.40;;;;;;;23.98;58.40;99669.34;4473362;31;33580;-85
2023/07/22 06:34:48;;;;;;;0.52;0.52;;;;;;;23.73;58.35;99666.41;4467679;31;32692;-84
2023/07/22 06:37:16;;;;;;;0.55;0.55;;;;;;;23.92;57.64;99660.00;4488035;31;34150;-85
2023/07/22 06:39:43;;;;;;;1.05;0.60;;;;;;;24.00;57.83;99664.63;4489719;31;34014;-86
2023/07/22 06:42:11;;;;;;;0.90;0.65;;;;;;;23.92;58.00;99669.94;4487752;31;34326;-86
2023/07/22 06:44:39;;;;;;;0.22;0.22;;;;;;;24.36;57.07;99661.88;4490895;31;33289;-86
2023/07/22 06:47:07;;;;;;;1.08;0.57;;;;;;;24.56;56.75;99660.66;4487384;31;33395;-85
2023/07/22 06:49:34;;;;;;;0.30;0.30;;;;;;;24.63;57.32;99674.34;4490854;31;32615;-87
2023/07/22 06:52:02;;;;;;;0.20;0.20;;;;;;;24.41;56.05;99671.22;4475774;31;33271;-87
2023/07/22 06:54:30;;;;;;;0.50;0.50;;;;;;;24.25;56.90;99671.91;4460925;31;32681;-87
2023/07/22 06:56:58;;;;;;;3.25;0.73;;;;;;;24.54;56.01;99673.47;4486737;31;32108;-87
2023/07/22 06:59:26;;;;;;;0.40;0.40;;;;;;;24.51;55.80;99666.53;4477037;31;31899;-85
2023/07/22 07:01:54;;;;;;;0.55;0.47;;;;;;;24.63;56.15;99672.50;4462765;31;32116;-86
2023/07/22 07:04:22;;;;;;;0.50;0.50;;;;;;;24.80;54.24;99683.41;4476816;31;34291;-85
2023/07/22 07:06:50;;;;;;;0.17;0.17;;;;;;;24.99;52.85;99677.75;4473950;31;33307;-85
2023/07/22 07:09:18;;;;;;;0.98;0.68;;;;;;;24.92;52.97;99687.50;4463656;31;32196;-87
2023/07/22 07:11:46;;;;;;;2.12;0.60;;;;;;;25.13;53.03;99687.13;4490081;31;34540;-86
2023/07/22 07:14:13;;;;;;;1.12;0.85;;;;;;;25.22;52.74;99692.41;4479349;31;33822;-86
2023/07/22 07:16:41;;;;;;;0.50;0.50;;;;;;;25.30;53.27;99683.44;4467237;31;32840;-87
2023/07/22 07:19:10;;;;;;;0.55;0.30;;;;;;;25.59;52.82;99683.03;4476647;31;32870;-88
2023/07/22 07:21:38;;;;;;;1.27;0.70;;;;;;;25.74;51.85;99694.88;4475426;31;32581;-87
2023/07/22 07:24:06;;;;;;;0.50;0.50;;;;;;;25.48;53.40;99683.34;4493507;31;34211;-87
2023/07/22 07:26:34;;;;;;;0.65;0.65;;;;;;;25.48;53.40;99702.25;4471048;31;33080;-86
2023/07/22 07:29:01;;;;;;;1.37;0.52;;;;;;;25.96;52.55;99689.84;4478010;31;32881;-88
2023/07/22 07:31:29;;;;;;;0.70;0.70;;;;;;;26.05;52.17;99702.38;4476959;31;32569;-86
2023/07/22 07:34:00;;;;;;;0.45;0.22;;;;;;;25.53;52.13;99706.16;4493441;31;33242;-84
2023/07/22 07:36:28;;;;;;;0.45;0.45;;;;;;;25.65;51.22;99712.09;4473937;31;33394;-85
2023/07/22 07:38:56;;;;;;;2.12;0.60;;;;;;;26.28;49.24;99722.31;4489411;31;33375;-85
2023/07/22 07:41:23;;;;;;;0.75;0.60;;;;;;;26.18;50.34;99720.81;4488098;31;32112;-85
2023/07/22 07:43:51;;;;;;;0.22;0.22;;;;;;;26.30;48.41;99725.72;4473242;31;31876;-85
2023/07/22 07:46:22;;;;;;;0.98;0.88;;;;;;;26.20;48.63;99730.44;4487775;31;32177;-85
2023/07/22 07:48:53;;;;;;;0.75;0.60;;;;;;;26.17;47.96;99736.22;4486988;31;31393;-85
2023/07/22 07:51:24;;;;;;;0.40;0.40;;;;;;;26.23;48.16;99740.09;4471975;31;32202;-86
2023/07/22 07:53:51;;;;;;;0.75;0.73;;;;;;;26.29;49.49;99734.84;4468208;31;33164;-85
2023/07/22 07:56:20;;;;;;;0.70;0.70;;;;;;;26.39;47.98;99739.22;4474750;31;33198;-86
2023/07/22 07:58:49;;;;;;;0.60;0.52;;;;;;;25.91;49.13;99741.75;4496504;31;33507;-86
2023/07/22 08:01:17;;;;;;;0.68;0.62;;;;;;;26.39;46.99;99744.66;4489281;31;33661;-86
2023/07/22 08:03:45;;;;;;;0.50;0.50;;;;;;;26.33;47.54;99751.59;4476480;31;32904;-87
2023/07/22 08:06:12;;;;;;;0.30;0.30;;;;;;;26.17;47.44;99738.91;4474700;31;33151;-87
2023/07/22 08:08:40;;;;;;;2.28;0.75;;;;;;;26.14;48.02;99741.94;4477054;31;34052;-87
2023/07/22 08:11:15;;;;;;;0.75;0.75;;;;;;;26.13;48.50;99750.25;4467180;31;32909;-87
2023/07/22 08:13:44;;;;;;;0.77;0.77;;;;;;;26.18;48.59;99759.53;4483609;31;33243;-87
2023/07/22 08:20:14;;;;;;;0.55;0.55;;;;;;;26.43;49.21;99755.00;4422108;32;33587;-88
2023/07/22 08:22:42;;;;;;;0.82;0.70;;;;;;;26.52;49.44;99763.97;4430297;32;32950;-87
2023/07/22 08:25:10;;;;;;;0.65;0.57;;;;;;;27.14;47.98;99764.19;4446667;31;34212;-90
2023/07/22 08:27:37;;;;;;;0.35;0.35;;;;;;;27.17;45.06;99772.00;4486470;31;33534;-88
2023/07/22 08:30:06;;;;;;;0.50;0.50;;;;;;;27.14;46.68;99783.19;4474516;31;33263;-87
2023/07/22 08:32:34;;;;;;;0.37;0.37;;;;;;;27.48;45.55;99784.75;4488774;31;33425;-86
2023/07/22 08:35:01;;;;;;;0.52;0.50;;;;;;;27.27;46.62;99794.31;4463982;31;32742;-86
2023/07/22 08:37:30;;;;;;;0.60;0.60;;;;;;;27.13;45.63;99776.06;4487882;31;33601;-86
2023/07/22 08:39:58;;;;;;;0.30;0.30;;;;;;;27.67;46.29;99797.88;4487295;31;34124;-87
2023/07/22 08:42:28;;;;;;;1.25;0.93;;;;;;;27.41;45.67;99797.31;4473386;31;33776;-86
2023/07/22 08:44:57;;;;;;;0.30;0.30;;;;;;;27.73;43.41;99804.50;4465287;31;33264;-86
2023/07/22 08:47:27;;;;;;;1.10;0.77;;;;;;;27.31;43.11;99801.09;4473571;31;33472;-86
2023/07/22 08:49:58;;;;;;;0.45;0.45;;;;;;;27.43;44.28;99803.41;4489788;31;33552;-86
2023/07/22 08:52:25;;;;;;;0.57;0.52;;;;;;;28.14;41.54;99809.66;4473587;31;33535;-86
2023/07/22 08:54:53;;;;;;;0.30;0.30;;;;;;;28.15;41.22;99808.63;4476261;31;33940;-86
2023/07/22 08:57:22;;;;;;;0.10;0.10;;;;;;;28.28;42.02;99803.47;4479845;31;32409;-88
2023/07/22 08:59:49;;;;;;;2.85;0.90;;;;;;;28.23;42.02;99812.16;4476065;31;32859;-88
2023/07/22 09:02:18;;;;;;;0.90;0.45;;;;;;;28.02;42.56;99803.81;4488873;31;34560;-88
2023/07/22 09:04:46;;;;;;;0.15;0.15;;;;;;;28.30;42.74;99807.69;4464893;31;33169;-87
2023/07/22 09:07:14;;;;;;;0.62;0.40;;;;;;;28.68;40.94;99810.47;4472249;31;33153;-87
2023/07/22 09:09:45;;;;;;;0.30;0.30;;;;;;;28.55;41.27;99815.69;4473563;31;32877;-87
2023/07/22 09:12:14;;;;;;;0.45;0.45;;;;;;;28.22;41.05;99804.19;4475959;31;32775;-87
2023/07/22 09:14:43;;;;;;;0.57;0.57;;;;;;;28.45;38.66;99812.38;4464760;31;33910;-87
2023/07/22 09:17:10;;;;;;;0.20;0.20;;;;;;;28.20;39.25;99819.81;4464571;31;32774;-87
2023/07/22 09:19:38;;;;;;;0.22;0.22;;;;;;;28.54;38.63;99819.44;4461014;31;33509;-87
2023/07/22 09:22:07;;;;;;;0.47;0.47;;;;;;;28.12;39.53;99811.75;4488678;31;33706;-88
2023/07/22 09:24:35;;;;;;;0.10;0.10;;;;;;;28.30;40.86;99807.69;4488587;31;33567;-87
2023/07/22 09:27:03;;;;;;;0.32;0.20;;;;;;;28.91;39.57;99801.41;4475590;31;32765;-87
2023/07/22 09:29:39;;;;;;;0.15;0.15;;;;;;;28.57;39.35;99813.62;4475998;31;33062;-87
2023/07/22 09:32:07;;;;;;;0.55;0.55;;;;;;;28.26;42.12;99811.78;4479834;31;33170;-88
2023/07/22 09:34:35;;;;;;;0.10;0.10;;;;;;;28.67;41.59;99807.94;4474291;31;34798;-89
2023/07/22 09:37:03;;;;;;;0.37;0.25;;;;;;;29.03;38.73;99810.84;4479956;31;34627;-87
2023/07/22 09:39:31;;;;;;;0.73;0.73;;;;;;;28.57;40.91;99798.16;4473271;31;32917;-88
2023/07/22 09:42:01;;;;;;;0.60;0.60;;;;;;;28.53;40.43;99812.28;4476420;31;34067;-88
2023/07/22 09:44:32;;;;;;;0.40;0.40;;;;;;;28.88;39.30;99804.50;4492336;31;33849;-88
2023/07/22 09:47:06;;;;;;;0.10;0.10;;;;;;;28.82;39.55;99806.09;4474643;31;33872;-88
2023/07/22 09:49:40;;;;;;;0.70;0.70;;;;;;;29.09;39.28;99797.34;4478651;31;33883;-87
2023/07/22 09:52:12;;;;;;;0.82;0.62;;;;;;;29.63;38.98;99804.38;4478459;31;32705;-88
2023/07/22 09:54:47;;;;;;;0.22;0.22;;;;;;;29.38;38.75;99794.81;4471523;31;33598;-88
2023/07/22 09:57:15;;;;;;;0.73;0.60;;;;;;;29.59;37.15;99797.63;4476474;31;32932;-88
2023/07/22 09:59:42;;;;;;;0.20;0.20;;;;;;;29.66;36.89;99793.09;4467537;31;32103;-88
2023/07/22 10:02:11;;;;;;;0.90;0.30;;;;;;;29.69;38.17;99790.00;4475706;31;32593;-88
2023/07/22 10:04:39;;;;;;;0.65;0.60;;;;;;;29.71;37.34;99800.69;4466936;31;32367;-87
2023/07/22 10:07:07;;;;;;;0.45;0.32;;;;;;;29.85;36.55;99797.94;4468759;31;31666;-89
2023/07/22 10:09:37;;;;;;;1.02;0.35;;;;;;;29.66;35.71;99793.09;4477665;31;33064;-88
2023/07/22 10:12:05;;;;;;;0.10;0.10;;;;;;;29.20;36.12;99803.34;4489105;31;33549;-88
2023/07/22 10:14:34;;;;;;;2.22;0.47;;;;;;;29.48;36.30;99803.50;4467286;31;33188;-88
2023/07/22 10:17:06;;;;;;;1.37;0.60;;;;;;;29.26;37.52;99803.44;4480845;31;33216;-88
2023/07/22 10:19:34;;;;;;;0.62;0.62;;;;;;;29.59;36.49;99803.09;4478991;31;31724;-88
2023/07/22 10:22:03;;;;;;;0.47;0.20;;;;;;;29.71;37.08;99804.25;4476896;31;33051;-88
2023/07/22 10:24:32;;;;;;;0.73;0.73;;;;;;;29.50;35.06;99806.91;4474445;31;33456;-88
2023/07/22 10:27:00;;;;;;;0.98;0.75;;;;;;;29.81;34.73;99804.78;4464978;31;33536;-87
2023/07/22 10:29:28;;;;;;;0.68;0.68;;;;;;;30.12;35.66;99814.59;4487660;31;33051;-87
2023/07/22 10:31:56;;;;;;;0.22;0.22;;;;;;;30.20;35.46;99817.22;4477713;31;34949;-88
2023/07/22 10:34:24;;;;;;;1.27;1.17;;;;;;;29.76;35.48;99806.41;4478499;31;33812;-88
2023/07/22 10:36:52;;;;;;;0.32;0.32;;;;;;;30.04;34.39;99807.38;4478308;31;33829;-88
2023/07/22 10:39:27;;;;;;;0.90;0.85;;;;;;;29.75;35.64;99819.19;4473715;31;32897;-88
2023/07/22 10:42:04;;;;;;;2.60;2.45;;;;;;;29.89;33.85;99812.00;4491776;31;34884;-89
2023/07/22 10:44:37;;;;;;;0.75;0.17;;;;;;;30.15;35.71;99808.78;4469217;31;34549;-90
2023/07/22 10:47:07;;;;;;;0.30;0.30;;;;;;;29.63;34.00;99796.22;4464343;31;34619;-92
2023/07/22 10:49:43;;;;;;;0.60;0.47;;;;;;;29.52;34.12;99799.38;4466347;31;32713;-91
2023/07/22 10:52:16;;;;;;;0.37;0.37;;;;;;;29.47;33.46;99793.66;4469555;31;33655;-91
2023/07/22 10:54:44;;;;;;;1.37;0.77;;;;;;;29.25;35.64;99795.50;4475095;31;33616;-91
2023/07/22 10:57:15;;;;;;;1.85;1.75;;;;;;;29.93;34.58;99798.88;4477565;31;32434;-91
2023/07/22 10:59:52;;;;;;;2.20;1.83;;;;;;;29.74;34.10;99801.16;4486703;31;32467;-90
2023/07/22 11:02:28;;;;;;;0.40;0.35;;;;;;;29.79;33.44;99793.28;4464717;31;33117;-91
2023/07/22 11:04:58;;;;;;;0.10;0.10;;;;;;;29.36;33.87;99791.44;4468141;31;33677;-91
2023/07/22 11:07:32;;;;;;;1.52;0.68;;;;;;;29.74;33.08;99790.28;4463877;31;33319;-91
2023/07/22 11:10:18;;;;;;;0.47;0.32;;;;;;;30.06;33.47;99788.97;4466915;31;32839;-91
2023/07/22 11:12:48;;;;;;;0.73;0.43;;;;;;;30.53;31.95;99784.00;4479639;31;30976;-91
2023/07/22 11:15:16;;;;;;;0.75;0.40;;;;;;;30.08;34.55;99786.03;4488033;31;33286;-91
2023/07/22 11:17:44;;;;;;;0.40;0.20;;;;;;;30.08;33.62;99772.44;4460372;31;33251;-91
2023/07/22 11:20:12;;;;;;;0.98;0.20;;;;;;;30.58;33.74;99792.44;4464630;31;33497;-91
2023/07/22 11:22:40;;;;;;;0.15;0.15;;;;;;;30.44;31.98;99785.19;4476012;31;34293;-92
2023/07/22 11:25:09;;;;;;;0.20;0.17;;;;;;;30.99;31.70;99786.25;4466744;31;35817;-91
2023/07/22 11:27:37;;;;;;;0.08;0.08;;;;;;;30.25;32.73;99787.53;4466714;31;34139;-91
2023/07/22 11:30:07;;;;;;;0.10;0.10;;;;;;;30.03;32.39;99780.34;4490711;31;33967;-92
2023/07/22 11:32:35;;;;;;;0.00;0.00;;;;;;;30.14;33.07;99782.56;4465386;31;32446;-89
2023/07/22 11:35:03;;;;;;;0.30;0.30;;;;;;;29.32;33.33;99775.47;4485441;31;34682;-89
2023/07/22 11:37:33;;;;;;;0.20;0.20;;;;;;;29.97;32.81;99772.97;4488471;31;33887;-88
2023/07/22 11:40:01;;;;;;;1.95;0.55;;;;;;;29.52;32.55;99777.63;4480658;31;33125;-88
2023/07/22 11:42:34;;;;;;;0.68;0.68;;;;;;;29.43;32.12;99782.31;4477650;31;32779;-89
2023/07/22 11:45:02;;;;;;;0.30;0.30;;;;;;;29.12;33.62;99785.25;4489665;31;34045;-88